createdAt,value
2019-02-07T00:07:51.300Z,963.4
2019-02-07T00:17:55.005Z,963.4
2019-02-07T00:27:58.705Z,963.3
2019-02-07T00:38:03.609Z,963.2
2019-02-07T00:48:07.307Z,963
2019-02-07T00:58:11.003Z,963.2
2019-02-07T01:08:14.692Z,963
2019-02-07T01:18:18.381Z,962.8
2019-02-07T01:28:22.080Z,962.7
2019-02-07T01:38:25.789Z,962.7
2019-02-07T01:48:29.489Z,962.6
2019-02-07T01:58:33.186Z,962.6
2019-02-07T02:08:36.897Z,962.6
2019-02-07T02:18:40.595Z,962.5
2019-02-07T02:28:44.287Z,962.2
2019-02-07T02:38:47.990Z,962.4
2019-02-07T02:48:51.686Z,962.2
2019-02-07T02:58:55.405Z,962.1
2019-02-07T03:08:59.080Z,962.2
2019-02-07T03:19:02.801Z,962.1
2019-02-07T03:29:07.292Z,962
2019-02-07T03:39:11.369Z,962
2019-02-07T03:49:15.071Z,962
2019-02-07T03:59:18.779Z,962
2019-02-07T04:09:22.481Z,962.1
2019-02-07T04:19:27.205Z,961.9
2019-02-07T04:29:30.906Z,962.1
2019-02-07T04:39:34.603Z,962
2019-02-07T04:49:38.305Z,962
2019-02-07T04:59:41.973Z,962
2019-02-07T05:09:45.709Z,962
2019-02-07T05:19:49.481Z,962
2019-02-07T05:29:53.182Z,961.8
2019-02-07T05:39:57.899Z,961.5
2019-02-07T05:50:01.883Z,961.5
2019-02-07T06:00:05.610Z,961.4
2019-02-07T06:10:09.308Z,961.3
2019-02-07T06:20:13.901Z,961.3
2019-02-07T06:30:17.919Z,961.3
2019-02-07T06:40:21.611Z,961.3
2019-02-07T06:50:25.304Z,961.2
2019-02-07T07:00:29.021Z,961.1
2019-02-07T07:10:32.709Z,961.1
2019-02-07T07:20:36.414Z,961
2019-02-07T07:30:40.128Z,961
2019-02-07T07:40:43.920Z,960.9
2019-02-07T07:50:48.496Z,965.5
2019-02-07T08:00:52.418Z,963.9
2019-02-07T08:10:56.113Z,964.5
2019-02-07T08:20:59.820Z,960.6
2019-02-07T08:31:03.529Z,966.8
2019-02-07T08:41:07.251Z,965.8
2019-02-07T08:51:10.980Z,965
2019-02-07T09:01:14.683Z,964.3
2019-02-07T09:11:18.369Z,963.7
2019-02-07T09:22:38.292Z,963
2019-02-07T09:32:41.999Z,962.6
2019-02-07T09:42:45.721Z,962.2
2019-02-07T09:52:49.439Z,961.8
2019-02-07T10:02:53.165Z,961.5
2019-02-07T10:12:56.888Z,961.2
2019-02-07T10:23:00.644Z,961
2019-02-07T10:33:04.350Z,960.8
2019-02-07T10:43:08.052Z,960.6
2019-02-07T10:53:11.967Z,960.3
2019-02-07T11:03:15.984Z,960
2019-02-07T11:13:19.702Z,959.9
2019-02-07T11:23:23.354Z,959.9
2019-02-07T11:33:27.054Z,959.9
2019-02-07T11:43:30.773Z,959.7
2019-02-07T11:53:34.468Z,959.6
2019-02-07T12:03:38.177Z,959.3
2019-02-07T12:13:41.886Z,959.1
2019-02-07T12:23:46.046Z,959
2019-02-07T12:33:50.019Z,958.8
2019-02-07T12:43:53.713Z,958.6
2019-02-07T12:53:57.407Z,958.5
2019-02-07T13:04:01.433Z,958.5
2019-02-07T13:14:05.149Z,958.4
2019-02-07T13:24:08.920Z,958.4
2019-02-07T13:34:12.697Z,958.3
2019-02-07T13:44:16.409Z,958.3
2019-02-07T13:54:21.147Z,958.4
2019-02-07T14:04:25.229Z,958.4
2019-02-07T14:14:28.920Z,958.4
2019-02-07T14:24:32.904Z,958.5
2019-02-07T14:34:36.607Z,958.6
2019-02-07T14:44:40.301Z,958.6
2019-02-07T14:54:43.988Z,958.4
2019-02-07T15:04:47.688Z,958.6
2019-02-07T15:14:51.397Z,958.5
2019-02-07T15:24:55.068Z,958.4
2019-02-07T15:34:58.780Z,958.4
2019-02-07T15:45:02.490Z,958.4
2019-02-07T15:55:06.215Z,958.5
2019-02-07T16:05:09.970Z,958.3
2019-02-07T16:15:13.684Z,965.3
2019-02-07T16:25:17.341Z,965.3
2019-02-07T16:35:21.031Z,965.4
2019-02-07T16:45:24.719Z,965.3
2019-02-07T16:55:28.415Z,965.4
2019-02-07T17:05:32.111Z,965.5
2019-02-07T17:15:35.805Z,958.5
2019-02-07T17:25:39.483Z,958.8
2019-02-07T17:35:43.211Z,959.1
2019-02-07T17:45:46.935Z,959.3
2019-02-07T17:55:50.636Z,959.4
2019-02-07T18:05:54.350Z,959.6
2019-02-07T18:15:58.302Z,959.6
2019-02-07T18:26:02.008Z,959.7
2019-02-07T18:36:05.696Z,959.8
2019-02-07T18:46:09.434Z,960
2019-02-07T18:56:13.148Z,959.9
2019-02-07T19:06:16.845Z,960.2
2019-02-07T19:16:20.709Z,960.4
2019-02-07T19:26:24.421Z,960.4
2019-02-07T19:36:28.114Z,960.4
2019-02-07T19:46:31.843Z,960.5
2019-02-07T19:56:36.311Z,960.8
2019-02-07T20:06:42.141Z,961
2019-02-07T20:16:45.864Z,961
2019-02-07T20:26:49.653Z,961.2
2019-02-07T20:36:53.371Z,961.2
2019-02-07T20:46:57.076Z,961.4
2019-02-07T20:57:00.805Z,961.5
2019-02-07T21:07:04.538Z,961.9
2019-02-07T21:17:08.264Z,962.2
2019-02-07T21:27:11.974Z,962.4
2019-02-07T21:37:16.563Z,962.8
2019-02-07T21:47:20.438Z,963
2019-02-07T21:57:24.169Z,963.3
2019-02-07T22:07:27.871Z,963.8
2019-02-07T22:17:31.555Z,964
2019-02-07T22:27:35.259Z,963.9
2019-02-07T22:37:39.017Z,963.8
2019-02-07T22:47:42.733Z,963.6
2019-02-07T22:57:46.439Z,963.6
2019-02-07T23:07:50.135Z,963.6
2019-02-07T23:17:53.847Z,963.6
2019-02-07T23:27:57.537Z,963.7
2019-02-07T23:38:01.211Z,963.5
2019-02-07T23:48:04.915Z,963.8
2019-02-07T23:58:08.634Z,963.6
